Time;durP1;ratioP1;P1;durP2;ratioP2;P2;SDS_P1;SDS_P2;PMS_P1;PMS_P2;Temp;Humidity;BMP_temperature;BMP_pressure;BME280_temperature;BME280_humidity;BME280_pressure;Samples;Min_cycle;Max_cycle;Signal;HPM_P1;HPM_P2
2023/10/31 00:01:08;;;;;;;13.43;8.20;;;12.20;99.90;;;;;;5052661;28;20037;-60
2023/10/31 00:03:34;;;;;;;7.75;6.03;;;12.20;99.90;;;;;;5052628;28;20029;-60
2023/10/31 00:05:59;;;;;;;9.82;6.53;;;12.20;99.90;;;;;;5052403;28;20021;-60
2023/10/31 00:08:25;;;;;;;8.70;6.03;;;12.20;99.90;;;;;;5052472;28;20033;-60
2023/10/31 00:10:51;;;;;;;9.80;5.80;;;12.20;99.90;;;;;;5052542;28;20025;-60
2023/10/31 00:13:16;;;;;;;12.13;6.30;;;12.20;99.90;;;;;;5044332;28;20028;-59
2023/10/31 00:15:42;;;;;;;11.68;6.68;;;12.20;99.90;;;;;;5052396;28;20029;-59
2023/10/31 00:18:07;;;;;;;11.63;7.00;;;12.30;99.90;;;;;;5051983;28;20094;-59
2023/10/31 00:20:33;;;;;;;14.30;7.07;;;12.20;99.90;;;;;;5051157;28;20036;-59
2023/10/31 00:22:58;;;;;;;14.35;7.18;;;12.20;99.90;;;;;;5052291;28;20033;-60
2023/10/31 00:25:24;;;;;;;12.15;6.55;;;12.20;99.90;;;;;;5052448;28;20370;-59
2023/10/31 00:27:50;;;;;;;9.05;5.38;;;12.20;99.90;;;;;;5051835;28;20167;-59
2023/10/31 00:30:15;;;;;;;12.60;4.43;;;12.20;99.90;;;;;;5052516;28;20051;-59
2023/10/31 00:32:41;;;;;;;11.95;6.68;;;12.20;99.90;;;;;;5044973;28;20115;-59
2023/10/31 00:35:07;;;;;;;8.23;5.03;;;12.20;99.90;;;;;;5050030;28;20042;-59
2023/10/31 00:37:32;;;;;;;9.15;5.13;;;12.20;99.90;;;;;;5052114;28;20025;-59
2023/10/31 00:39:58;;;;;;;8.32;5.18;;;12.30;99.90;;;;;;5052217;28;20032;-58
2023/10/31 00:42:23;;;;;;;8.50;4.85;;;12.30;99.90;;;;;;5052277;28;20078;-59
2023/10/31 00:44:49;;;;;;;8.35;5.10;;;12.20;99.90;;;;;;5043683;28;20104;-59
2023/10/31 00:47:15;;;;;;;9.77;4.80;;;12.30;99.90;;;;;;5051685;28;20394;-58
2023/10/31 00:49:41;;;;;;;9.52;5.43;;;12.30;99.90;;;;;;5043467;28;20389;-59
2023/10/31 00:52:06;;;;;;;11.02;4.45;;;12.20;99.90;;;;;;5051794;28;20037;-59
2023/10/31 00:54:32;;;;;;;10.30;5.68;;;12.20;99.90;;;;;;5051749;28;20021;-59
2023/10/31 00:56:57;;;;;;;9.50;5.15;;;12.20;99.90;;;;;;5051440;28;20059;-59
2023/10/31 00:59:23;;;;;;;11.93;5.63;;;12.20;99.90;;;;;;5051655;28;20025;-59
2023/10/31 01:01:49;;;;;;;8.13;4.80;;;12.20;99.90;;;;;;5051566;28;20017;-59
2023/10/31 01:04:14;;;;;;;7.07;4.15;;;12.20;99.90;;;;;;5051918;28;20087;-59
2023/10/31 01:06:41;;;;;;;11.50;4.53;;;12.20;99.90;;;;;;5051365;28;20032;-59
2023/10/31 01:09:07;;;;;;;9.48;4.53;;;12.20;99.90;;;;;;5051392;28;20025;-59
2023/10/31 01:11:32;;;;;;;9.52;4.93;;;12.20;99.90;;;;;;5044047;28;20025;-58
2023/10/31 01:13:58;;;;;;;5.95;4.38;;;12.20;99.90;;;;;;5049877;28;20402;-59
2023/10/31 01:16:23;;;;;;;7.93;4.20;;;12.20;99.90;;;;;;5051299;28;20060;-58
2023/10/31 01:18:49;;;;;;;7.22;4.63;;;12.20;99.90;;;;;;5051121;28;20170;-58
2023/10/31 01:21:15;;;;;;;8.35;4.13;;;12.20;99.90;;;;;;5051079;28;20057;-58
2023/10/31 01:23:40;;;;;;;8.45;4.32;;;12.20;99.90;;;;;;5051134;28;20494;-59
2023/10/31 01:26:06;;;;;;;5.95;3.88;;;12.30;99.90;;;;;;5049962;28;20473;-59
2023/10/31 01:28:31;;;;;;;6.40;4.45;;;12.30;99.90;;;;;;5050983;28;20044;-58
2023/10/31 01:30:57;;;;;;;6.68;4.10;;;12.30;99.90;;;;;;5051359;28;20394;-59
2023/10/31 01:33:22;;;;;;;11.25;3.85;;;12.30;99.90;;;;;;5051507;28;20032;-59
2023/10/31 01:35:48;;;;;;;6.95;3.50;;;12.30;99.90;;;;;;5051068;28;20114;-58
2023/10/31 01:38:13;;;;;;;7.10;3.53;;;12.30;99.90;;;;;;5051002;28;20071;-58
2023/10/31 01:40:39;;;;;;;8.27;4.00;;;12.30;99.90;;;;;;5051181;28;20033;-57
2023/10/31 01:43:05;;;;;;;5.90;3.63;;;12.30;99.90;;;;;;5042730;28;20032;-58
2023/10/31 01:45:30;;;;;;;8.20;3.38;;;12.30;99.90;;;;;;5029621;28;20391;-58
2023/10/31 01:47:56;;;;;;;7.68;3.92;;;12.30;99.90;;;;;;5048222;28;20292;-58
2023/10/31 01:50:22;;;;;;;6.88;3.40;;;12.30;99.90;;;;;;5050728;28;20025;-59
2023/10/31 01:52:48;;;;;;;8.55;3.95;;;12.30;99.90;;;;;;5050536;28;20029;-60
2023/10/31 01:55:14;;;;;;;9.48;4.07;;;12.30;99.90;;;;;;5050779;28;20024;-59
2023/10/31 01:57:40;;;;;;;6.05;3.65;;;12.30;99.90;;;;;;5050944;28;20091;-60
2023/10/31 02:00:06;;;;;;;4.40;3.50;;;12.30;99.90;;;;;;5042523;28;20029;-60
2023/10/31 02:02:34;;;;;;;7.15;4.05;;;12.30;99.90;;;;;;5050533;28;20035;-60
2023/10/31 02:05:00;;;;;;;9.65;4.60;;;12.30;99.90;;;;;;5050444;28;20025;-60
2023/10/31 02:07:25;;;;;;;7.68;4.53;;;12.30;99.90;;;;;;5050288;28;20108;-59
2023/10/31 02:09:52;;;;;;;6.93;3.85;;;12.30;99.90;;;;;;5050292;28;20103;-59
2023/10/31 02:12:34;;;;;;;13.15;4.80;;;12.30;99.90;;;;;;5050496;28;20115;-59
2023/10/31 02:15:01;;;;;;;10.73;4.97;;;12.30;99.90;;;;;;5048576;28;20586;-60
2023/10/31 02:17:26;;;;;;;10.95;5.07;;;12.20;99.90;;;;;;5044229;28;20028;-60
2023/10/31 02:19:52;;;;;;;10.50;4.78;;;12.20;99.90;;;;;;5050491;28;20386;-59
2023/10/31 02:22:17;;;;;;;7.63;4.80;;;12.20;99.90;;;;;;5050719;28;20614;-59
2023/10/31 02:24:43;;;;;;;11.02;4.80;;;12.20;99.90;;;;;;5050541;28;20060;-60
2023/10/31 02:27:08;;;;;;;11.55;4.68;;;12.20;99.90;;;;;;5042025;28;20209;-59
2023/10/31 02:29:34;;;;;;;8.95;4.60;;;12.20;99.90;;;;;;5050388;28;20057;-59
2023/10/31 02:31:59;;;;;;;6.88;5.07;;;12.20;99.90;;;;;;5048384;28;20483;-59
2023/10/31 02:34:26;;;;;;;8.25;5.30;;;12.20;99.90;;;;;;5043915;28;20029;-59
2023/10/31 02:36:51;;;;;;;8.75;5.45;;;12.20;99.90;;;;;;5049273;28;20029;-59
2023/10/31 02:39:17;;;;;;;11.43;5.40;;;12.20;99.90;;;;;;5041259;28;20043;-59
2023/10/31 02:41:43;;;;;;;10.40;5.35;;;12.20;99.90;;;;;;5050144;28;20386;-59
2023/10/31 02:44:09;;;;;;;11.38;6.13;;;12.20;99.90;;;;;;5050331;28;20036;-59
2023/10/31 02:46:38;;;;;;;14.73;6.32;;;12.10;99.90;;;;;;5049761;28;20509;-59
2023/10/31 02:49:03;;;;;;;9.30;5.78;;;12.10;99.90;;;;;;5049763;28;20047;-59
2023/10/31 02:51:29;;;;;;;11.65;6.43;;;12.10;99.90;;;;;;5050035;28;20633;-59
2023/10/31 02:53:54;;;;;;;10.70;6.28;;;12.10;99.90;;;;;;5049778;28;20551;-59
2023/10/31 02:56:21;;;;;;;12.85;6.97;;;12.10;99.90;;;;;;5050086;28;20449;-58
2023/10/31 02:58:46;;;;;;;14.35;6.85;;;12.10;99.90;;;;;;5041533;28;20109;-58
2023/10/31 03:01:12;;;;;;;11.60;6.70;;;12.10;99.90;;;;;;5046593;28;20445;-58
2023/10/31 03:03:37;;;;;;;8.88;6.72;;;12.00;99.90;;;;;;5045236;28;20025;-58
2023/10/31 03:06:05;;;;;;;14.65;7.22;;;12.00;99.90;;;;;;5048544;28;20036;-58
2023/10/31 03:08:30;;;;;;;14.15;7.22;;;12.00;99.90;;;;;;5049785;28;20052;-58
2023/10/31 03:10:56;;;;;;;10.90;7.80;;;12.00;99.90;;;;;;5050125;28;20505;-58
2023/10/31 03:13:23;;;;;;;12.98;7.53;;;11.90;99.90;;;;;;5048300;28;20017;-59
2023/10/31 03:15:49;;;;;;;13.38;8.07;;;11.90;99.90;;;;;;5049547;28;20464;-59
2023/10/31 03:18:14;;;;;;;16.38;8.65;;;11.90;99.90;;;;;;5049675;28;20021;-58
2023/10/31 03:20:40;;;;;;;17.38;8.20;;;11.90;99.90;;;;;;5042556;28;20446;-58
2023/10/31 03:23:05;;;;;;;15.05;8.48;;;11.90;99.90;;;;;;5048857;28;20025;-59
2023/10/31 03:25:31;;;;;;;17.48;8.25;;;11.90;99.90;;;;;;5048165;28;20033;-59
2023/10/31 03:27:56;;;;;;;24.50;9.52;;;11.90;99.90;;;;;;5039518;28;20059;-58
2023/10/31 03:30:22;;;;;;;16.80;7.80;;;11.90;99.90;;;;;;5037920;28;20467;-59
2023/10/31 03:32:47;;;;;;;18.88;9.52;;;11.90;99.90;;;;;;5046068;28;20029;-59
2023/10/31 03:35:14;;;;;;;18.92;8.35;;;11.90;99.90;;;;;;5052229;28;20021;-59
2023/10/31 03:37:41;;;;;;;15.02;9.05;;;11.90;99.90;;;;;;5053365;28;20040;-60
2023/10/31 03:40:09;;;;;;;17.88;9.05;;;11.90;99.90;;;;;;5050888;28;20030;-60
2023/10/31 03:42:35;;;;;;;17.63;8.80;;;11.90;99.90;;;;;;5048128;28;20029;-59
2023/10/31 03:45:00;;;;;;;18.55;9.02;;;11.90;99.90;;;;;;5050940;28;20025;-60
2023/10/31 03:47:26;;;;;;;14.80;8.52;;;11.90;99.90;;;;;;5052895;28;20425;-60
2023/10/31 03:49:52;;;;;;;16.80;8.55;;;11.90;99.90;;;;;;5051764;28;20391;-58
2023/10/31 03:52:18;;;;;;;15.40;8.18;;;11.90;99.90;;;;;;5053066;28;20025;-59
2023/10/31 03:54:43;;;;;;;14.43;8.15;;;11.90;99.90;;;;;;5053250;28;20021;-58
2023/10/31 03:57:10;;;;;;;14.05;8.65;;;11.90;99.90;;;;;;5043830;28;20029;-58
2023/10/31 03:59:37;;;;;;;12.65;6.70;;;11.90;99.90;;;;;;5050586;28;20064;-58
2023/10/31 04:02:03;;;;;;;14.48;7.65;;;12.00;99.90;;;;;;5052983;28;20029;-59
2023/10/31 04:04:28;;;;;;;14.30;8.45;;;12.00;99.90;;;;;;5046296;28;20034;-58
2023/10/31 04:06:54;;;;;;;12.65;8.25;;;12.00;99.90;;;;;;5047318;28;20426;-58
2023/10/31 04:09:19;;;;;;;13.75;7.85;;;12.00;99.90;;;;;;5046594;28;20025;-58
2023/10/31 04:11:45;;;;;;;11.45;7.90;;;12.00;99.90;;;;;;5047308;28;20029;-58
2023/10/31 04:14:10;;;;;;;14.27;8.60;;;12.00;99.90;;;;;;5042757;28;20045;-58
2023/10/31 04:16:45;;;;;;;17.45;8.43;;;12.00;99.90;;;;;;5045187;28;20059;-58
2023/10/31 04:19:13;;;;;;;17.40;8.75;;;12.00;99.90;;;;;;5041803;28;20359;-59
2023/10/31 04:21:39;;;;;;;16.02;8.60;;;12.00;99.90;;;;;;5040647;28;20538;-59
2023/10/31 04:24:05;;;;;;;20.13;9.70;;;12.10;99.90;;;;;;5043969;28;20107;-58
2023/10/31 04:26:31;;;;;;;11.90;8.02;;;12.00;99.90;;;;;;5039419;28;20504;-58
2023/10/31 04:28:56;;;;;;;13.98;8.18;;;12.00;99.90;;;;;;5041876;28;20393;-58
2023/10/31 04:31:22;;;;;;;11.40;7.75;;;12.00;99.90;;;;;;5039715;28;20045;-59
2023/10/31 04:33:47;;;;;;;14.25;9.30;;;12.10;99.90;;;;;;5039462;28;20033;-59
2023/10/31 04:36:13;;;;;;;16.30;9.55;;;12.10;99.90;;;;;;5052816;28;20359;-58
2023/10/31 04:38:38;;;;;;;17.80;10.95;;;12.10;99.90;;;;;;5051338;28;20490;-58
2023/10/31 04:41:04;;;;;;;18.75;11.70;;;12.10;99.90;;;;;;5052839;28;20029;-58
2023/10/31 04:43:29;;;;;;;19.77;10.52;;;12.00;99.90;;;;;;5052460;28;20112;-58
2023/10/31 04:45:55;;;;;;;18.50;10.35;;;12.00;99.90;;;;;;5052199;28;20029;-58
2023/10/31 04:48:20;;;;;;;13.20;9.68;;;11.90;99.90;;;;;;5052383;28;20029;-57
2023/10/31 04:50:46;;;;;;;9.32;7.47;;;11.90;99.90;;;;;;5052380;28;20032;-58
2023/10/31 04:53:12;;;;;;;9.23;6.50;;;11.60;99.90;;;;;;5044044;28;20095;-57
2023/10/31 04:55:37;;;;;;;7.20;5.75;;;11.40;99.90;;;;;;5052043;28;20029;-57
2023/10/31 04:58:02;;;;;;;11.13;6.82;;;11.20;99.90;;;;;;5043755;28;20045;-57
2023/10/31 05:00:28;;;;;;;6.70;6.00;;;11.10;99.90;;;;;;5052027;28;20440;-59
2023/10/31 05:02:53;;;;;;;10.07;6.75;;;11.10;99.90;;;;;;5052146;28;20112;-57
2023/10/31 05:05:19;;;;;;;6.82;6.10;;;11.00;99.90;;;;;;5043699;28;20021;-57
2023/10/31 05:07:45;;;;;;;7.78;6.97;;;10.90;99.90;;;;;;5050439;28;20560;-57
2023/10/31 05:10:11;;;;;;;8.00;6.68;;;10.90;99.90;;;;;;5051904;28;20033;-57
2023/10/31 05:12:37;;;;;;;9.93;6.68;;;10.80;99.90;;;;;;5050631;28;20025;-57
2023/10/31 05:15:02;;;;;;;8.55;6.93;;;10.70;99.90;;;;;;5051689;28;20095;-57
2023/10/31 05:17:28;;;;;;;7.10;6.20;;;10.70;99.90;;;;;;5048224;28;20494;-58
2023/10/31 05:19:53;;;;;;;7.40;6.22;;;10.70;99.90;;;;;;5041335;28;20025;-58
2023/10/31 05:22:19;;;;;;;9.25;6.35;;;10.70;99.90;;;;;;5051462;28;20087;-58
2023/10/31 05:24:44;;;;;;;7.18;6.03;;;10.60;99.90;;;;;;5043571;28;20087;-59
2023/10/31 05:27:10;;;;;;;7.45;6.07;;;10.60;99.90;;;;;;5051310;28;20032;-59
2023/10/31 05:29:38;;;;;;;7.53;6.47;;;10.60;99.90;;;;;;5042093;28;20029;-58
2023/10/31 05:32:03;;;;;;;7.30;6.20;;;10.60;99.90;;;;;;5051737;28;20017;-58
2023/10/31 05:34:29;;;;;;;8.57;6.30;;;10.60;99.90;;;;;;5051405;28;20039;-58
2023/10/31 05:36:54;;;;;;;7.30;6.28;;;10.60;99.90;;;;;;5050926;28;20398;-58
2023/10/31 05:39:20;;;;;;;8.77;5.93;;;10.50;99.90;;;;;;5051302;28;20260;-58
2023/10/31 05:41:45;;;;;;;5.70;5.20;;;10.60;99.90;;;;;;5043696;28;20057;-58
2023/10/31 05:44:11;;;;;;;8.32;4.93;;;10.50;99.90;;;;;;5051197;28;20025;-58
2023/10/31 05:46:40;;;;;;;7.05;4.95;;;10.50;99.90;;;;;;5051028;28;20040;-58
2023/10/31 05:49:07;;;;;;;4.85;4.25;;;10.50;99.90;;;;;;5050680;28;20056;-58
2023/10/31 05:51:33;;;;;;;4.00;3.53;;;10.50;99.90;;;;;;5050558;28;20147;-59
2023/10/31 05:53:59;;;;;;;3.80;3.40;;;10.40;99.90;;;;;;5050656;28;20021;-58
2023/10/31 05:56:25;;;;;;;2.50;2.10;;;10.50;99.90;;;;;;5050105;28;20637;-58
2023/10/31 05:58:50;;;;;;;2.30;2.10;;;10.50;99.90;;;;;;5050141;28;20337;-58
2023/10/31 06:01:16;;;;;;;2.35;2.15;;;10.70;99.90;;;;;;5044313;28;20021;-58
2023/10/31 06:03:43;;;;;;;1.60;1.50;;;10.80;99.90;;;;;;5038120;28;20561;-58
2023/10/31 06:06:09;;;;;;;1.70;1.23;;;10.90;99.90;;;;;;5036328;28;20017;-58
2023/10/31 06:08:35;;;;;;;1.40;1.30;;;11.00;99.90;;;;;;5040661;28;20079;-58
2023/10/31 06:11:00;;;;;;;2.05;1.25;;;11.00;99.90;;;;;;5038638;28;20013;-59
2023/10/31 06:13:27;;;;;;;1.15;1.05;;;11.10;99.90;;;;;;5037910;28;20029;-58
2023/10/31 06:15:54;;;;;;;1.50;0.80;;;11.00;99.90;;;;;;5050020;28;20024;-59
2023/10/31 06:18:19;;;;;;;1.83;0.80;;;11.10;99.90;;;;;;5045413;28;20021;-58
2023/10/31 06:20:45;;;;;;;4.65;0.70;;;11.10;99.90;;;;;;5042111;28;20486;-59
2023/10/31 06:23:10;;;;;;;1.80;0.70;;;11.10;99.90;;;;;;5041989;28;20059;-59
2023/10/31 06:25:36;;;;;;;1.00;0.60;;;11.10;99.90;;;;;;5041456;28;20029;-59
2023/10/31 06:28:01;;;;;;;0.65;0.52;;;11.10;99.90;;;;;;5042340;28;20535;-59
2023/10/31 06:30:27;;;;;;;1.92;0.68;;;11.10;99.90;;;;;;5040220;28;20067;-59
2023/10/31 06:32:55;;;;;;;0.98;0.43;;;11.10;99.90;;;;;;5042580;28;20446;-59
2023/10/31 06:35:24;;;;;;;0.68;0.40;;;11.10;99.90;;;;;;5040602;28;20021;-58
2023/10/31 06:37:50;;;;;;;1.33;0.75;;;11.10;99.90;;;;;;5040275;28;20033;-58
2023/10/31 06:40:16;;;;;;;1.25;0.70;;;11.10;99.90;;;;;;5041176;28;20029;-58
2023/10/31 06:42:42;;;;;;;1.58;0.60;;;11.10;99.90;;;;;;5045750;28;20056;-59
2023/10/31 06:45:07;;;;;;;0.80;0.70;;;11.10;99.90;;;;;;5049483;28;20048;-59
2023/10/31 06:47:33;;;;;;;1.92;0.43;;;11.10;99.90;;;;;;5049353;28;20131;-60
2023/10/31 06:49:58;;;;;;;0.93;0.55;;;11.10;99.90;;;;;;5049503;28;20025;-60
2023/10/31 06:52:24;;;;;;;2.03;0.50;;;11.10;99.90;;;;;;5049633;28;20039;-60
2023/10/31 06:54:49;;;;;;;0.63;0.60;;;11.20;99.90;;;;;;5048111;28;20356;-59
2023/10/31 06:57:16;;;;;;;0.55;0.55;;;11.10;99.90;;;;;;5049194;28;20033;-60
2023/10/31 06:59:41;;;;;;;1.50;0.82;;;11.10;99.90;;;;;;5050011;28;20442;-61
2023/10/31 07:02:07;;;;;;;3.03;0.75;;;11.10;99.90;;;;;;5038102;28;20119;-61
2023/10/31 07:04:32;;;;;;;1.73;0.80;;;11.10;99.90;;;;;;5039575;28;20438;-61
2023/10/31 07:06:58;;;;;;;3.03;0.93;;;11.20;99.90;;;;;;5039981;28;20466;-61
2023/10/31 07:09:25;;;;;;;2.05;0.80;;;11.10;99.90;;;;;;5036872;28;20033;-61
2023/10/31 07:11:51;;;;;;;2.78;1.10;;;11.20;99.90;;;;;;5038079;28;20028;-61
2023/10/31 07:14:16;;;;;;;1.33;1.08;;;11.20;99.90;;;;;;5039118;28;20017;-61
2023/10/31 07:16:43;;;;;;;3.22;1.20;;;11.10;99.90;;;;;;5041850;28;20019;-60
2023/10/31 07:19:10;;;;;;;5.38;1.30;;;11.10;99.90;;;;;;5043097;28;20097;-60
2023/10/31 07:21:35;;;;;;;1.70;1.00;;;11.20;99.90;;;;;;5040893;28;20036;-60
2023/10/31 07:24:01;;;;;;;11.35;1.23;;;11.20;99.90;;;;;;5043512;28;20029;-60
2023/10/31 07:26:27;;;;;;;3.60;1.20;;;11.20;99.90;;;;;;5040260;28;20017;-61
2023/10/31 07:28:53;;;;;;;3.53;1.30;;;11.20;99.90;;;;;;5036709;28;20075;-60
2023/10/31 07:31:18;;;;;;;4.50;1.30;;;11.20;99.90;;;;;;5035299;28;20475;-61
2023/10/31 07:33:45;;;;;;;5.85;1.25;;;11.20;99.90;;;;;;5037439;28;20021;-60
2023/10/31 07:36:11;;;;;;;6.07;1.38;;;11.30;99.90;;;;;;5034594;28;20021;-60
2023/10/31 07:38:36;;;;;;;4.53;1.40;;;11.20;99.90;;;;;;5044040;28;20402;-61
2023/10/31 07:41:02;;;;;;;4.35;1.40;;;11.20;99.90;;;;;;5048613;28;20067;-60
2023/10/31 07:43:27;;;;;;;7.10;1.60;;;11.20;99.90;;;;;;5047674;28;20029;-60
2023/10/31 07:45:53;;;;;;;3.60;1.45;;;11.20;99.90;;;;;;5049296;28;20105;-60
2023/10/31 07:48:18;;;;;;;2.40;1.83;;;11.20;99.90;;;;;;5049095;28;20032;-61
2023/10/31 07:50:44;;;;;;;3.47;1.90;;;11.20;99.90;;;;;;5048037;28;20033;-60
2023/10/31 07:53:09;;;;;;;4.47;1.70;;;11.10;99.90;;;;;;5047636;28;20110;-61
2023/10/31 07:55:35;;;;;;;3.90;1.67;;;11.10;99.90;;;;;;5047594;28;20082;-61
2023/10/31 07:58:00;;;;;;;4.03;1.80;;;11.10;99.90;;;;;;5048906;28;20037;-61
2023/10/31 08:00:26;;;;;;;2.47;1.90;;;11.10;99.90;;;;;;5048907;28;20052;-60
2023/10/31 08:02:52;;;;;;;4.50;1.90;;;11.10;99.90;;;;;;5048753;28;20029;-60
2023/10/31 08:05:17;;;;;;;3.58;1.88;;;11.10;99.90;;;;;;5044676;28;20036;-60
2023/10/31 08:07:43;;;;;;;3.70;2.03;;;11.20;99.90;;;;;;5036627;28;20033;-60
2023/10/31 08:10:09;;;;;;;2.88;1.90;;;11.20;99.90;;;;;;5043640;28;20025;-60
2023/10/31 08:12:35;;;;;;;1.80;1.48;;;11.20;99.90;;;;;;5035491;28;20401;-60
2023/10/31 08:15:01;;;;;;;4.32;2.05;;;11.20;99.90;;;;;;5036513;28;20394;-60
2023/10/31 08:17:26;;;;;;;3.10;1.75;;;11.20;99.90;;;;;;5037010;28;20018;-60
2023/10/31 08:19:52;;;;;;;3.17;1.60;;;11.30;99.90;;;;;;5043929;28;20036;-60
2023/10/31 08:22:17;;;;;;;2.20;1.70;;;11.40;99.90;;;;;;5044145;28;20067;-61
2023/10/31 08:24:43;;;;;;;4.10;1.83;;;11.50;99.90;;;;;;5049309;28;20143;-61
2023/10/31 08:27:10;;;;;;;6.43;2.00;;;11.40;99.90;;;;;;5051513;28;20044;-61
2023/10/31 08:29:35;;;;;;;2.63;1.73;;;11.50;99.90;;;;;;5050841;28;20040;-61
2023/10/31 08:32:01;;;;;;;6.25;2.10;;;11.60;99.90;;;;;;5051872;28;20305;-62
2023/10/31 08:34:26;;;;;;;2.85;1.67;;;11.60;99.90;;;;;;5051863;28;20031;-61
2023/10/31 08:36:52;;;;;;;2.55;1.90;;;11.60;99.90;;;;;;5051787;28;20183;-61
2023/10/31 08:39:18;;;;;;;3.50;1.90;;;11.70;99.90;;;;;;5051541;28;20025;-62
2023/10/31 08:41:57;;;;;;;2.15;1.77;;;11.70;99.90;;;;;;5051761;28;20029;-61
2023/10/31 08:44:23;;;;;;;2.10;1.90;;;11.70;99.90;;;;;;5051583;28;20429;-61
2023/10/31 08:46:49;;;;;;;2.83;1.10;;;11.70;99.90;;;;;;5043337;28;20033;-62
2023/10/31 08:49:15;;;;;;;3.58;1.42;;;11.50;99.90;;;;;;5051469;28;20029;-61
2023/10/31 08:51:41;;;;;;;1.55;1.33;;;11.50;99.90;;;;;;5051593;28;20035;-62
2023/10/31 08:54:07;;;;;;;1.90;1.27;;;11.50;99.90;;;;;;5051436;28;20017;-62
2023/10/31 08:56:32;;;;;;;2.50;1.27;;;11.50;99.90;;;;;;5051689;28;20043;-61
2023/10/31 08:58:58;;;;;;;3.95;1.30;;;11.50;99.90;;;;;;5050063;28;20111;-61
2023/10/31 09:01:23;;;;;;;1.58;1.10;;;11.50;99.90;;;;;;5051499;28;20043;-62
2023/10/31 09:03:49;;;;;;;2.90;1.20;;;11.50;99.90;;;;;;5050175;28;20071;-61
2023/10/31 09:06:15;;;;;;;3.13;1.30;;;11.40;99.90;;;;;;5051671;28;20029;-61
2023/10/31 09:08:40;;;;;;;2.60;1.35;;;11.40;99.90;;;;;;5051235;28;20056;-61
2023/10/31 09:11:06;;;;;;;1.48;1.15;;;11.40;99.90;;;;;;5051463;28;20411;-61
2023/10/31 09:13:32;;;;;;;3.28;1.30;;;11.40;99.90;;;;;;5051261;28;20029;-62
2023/10/31 09:16:01;;;;;;;2.83;1.33;;;11.50;99.90;;;;;;5051186;28;20134;-61
2023/10/31 09:18:27;;;;;;;2.30;1.20;;;11.70;99.90;;;;;;5049971;28;20025;-61
2023/10/31 09:20:53;;;;;;;3.53;1.17;;;11.90;99.90;;;;;;5043809;28;20049;-61
2023/10/31 09:23:18;;;;;;;2.08;0.80;;;12.10;99.90;;;;;;5044019;28;20040;-61
2023/10/31 09:25:44;;;;;;;1.30;0.52;;;12.60;99.90;;;;;;5042719;28;20539;-62
2023/10/31 09:28:10;;;;;;;0.93;0.63;;;13.10;99.90;;;;;;5044157;28;20387;-61
2023/10/31 09:30:36;;;;;;;2.17;0.77;;;13.40;99.90;;;;;;5048169;28;20021;-61
2023/10/31 09:33:01;;;;;;;1.65;0.88;;;13.40;99.90;;;;;;5049971;28;20075;-61
2023/10/31 09:35:27;;;;;;;2.95;0.52;;;13.60;99.90;;;;;;5047320;28;20083;-61
2023/10/31 09:37:54;;;;;;;0.68;0.65;;;13.70;99.90;;;;;;5042994;28;20036;-61
2023/10/31 09:40:20;;;;;;;2.17;0.80;;;13.50;99.90;;;;;;5043936;28;20553;-61
2023/10/31 09:42:46;;;;;;;1.85;0.73;;;13.40;99.90;;;;;;5047730;28;20060;-61
2023/10/31 09:45:13;;;;;;;1.10;0.60;;;13.10;99.90;;;;;;5049341;28;20450;-61
2023/10/31 09:47:39;;;;;;;2.25;0.82;;;13.30;99.90;;;;;;5048873;28;20053;-61
2023/10/31 09:50:05;;;;;;;1.58;0.70;;;13.60;99.90;;;;;;5049377;28;20025;-61
2023/10/31 09:52:30;;;;;;;1.95;0.77;;;13.80;99.90;;;;;;5049061;28;20024;-61
2023/10/31 09:54:56;;;;;;;1.02;0.60;;;13.70;99.90;;;;;;5049910;28;20036;-62
2023/10/31 09:57:22;;;;;;;2.08;0.80;;;14.10;99.90;;;;;;5050544;28;20104;-61
2023/10/31 09:59:48;;;;;;;2.45;0.52;;;15.30;99.90;;;;;;5050804;28;20094;-61
2023/10/31 10:02:13;;;;;;;0.70;0.70;;;16.30;99.90;;;;;;5049284;28;20053;-61
2023/10/31 10:04:39;;;;;;;1.13;0.60;;;16.50;99.90;;;;;;5050354;28;20502;-61
2023/10/31 10:07:05;;;;;;;1.20;0.75;;;16.50;99.90;;;;;;5049883;28;20426;-61
2023/10/31 10:09:34;;;;;;;1.30;0.60;;;16.10;99.90;;;;;;5050134;28;20031;-63
2023/10/31 10:12:01;;;;;;;0.85;0.60;;;15.30;99.90;;;;;;5049957;28;20425;-62
2023/10/31 10:14:28;;;;;;;1.58;0.73;;;14.70;99.90;;;;;;5050084;28;20021;-61
2023/10/31 10:16:55;;;;;;;0.95;0.50;;;14.30;99.90;;;;;;5049839;28;20044;-61
2023/10/31 10:19:22;;;;;;;4.13;0.70;;;14.00;99.90;;;;;;5049963;28;20043;-61
2023/10/31 10:21:50;;;;;;;0.95;0.70;;;13.70;99.90;;;;;;5049895;28;20048;-62
2023/10/31 10:24:17;;;;;;;0.93;0.70;;;13.30;99.90;;;;;;5049901;28;20457;-61
2023/10/31 10:26:42;;;;;;;1.50;0.55;;;13.00;99.90;;;;;;5048419;28;20025;-61
2023/10/31 10:29:08;;;;;;;1.58;0.80;;;12.80;99.90;;;;;;5048195;28;20028;-62
2023/10/31 10:31:35;;;;;;;0.60;0.60;;;12.70;99.90;;;;;;5046677;28;20029;-61
2023/10/31 10:34:01;;;;;;;0.88;0.70;;;12.50;99.90;;;;;;5048116;28;20323;-61
2023/10/31 10:36:27;;;;;;;1.65;0.70;;;12.30;99.90;;;;;;5047977;28;20422;-61
2023/10/31 10:38:59;;;;;;;1.13;0.90;;;12.00;99.90;;;;;;5047958;28;20506;-61
2023/10/31 10:41:26;;;;;;;1.52;1.35;;;11.80;99.90;;;;;;5048900;28;20037;-61
2023/10/31 10:44:13;;;;;;;0.93;0.80;;;11.70;99.90;;;;;;5049511;28;20033;-62
2023/10/31 10:46:40;;;;;;;1.60;0.85;;;11.60;99.90;;;;;;5049883;28;20032;-61
2023/10/31 10:49:06;;;;;;;1.92;0.90;;;11.60;99.90;;;;;;5049533;28;20029;-62
2023/10/31 10:52:12;;;;;;;1.23;0.82;;;11.60;99.90;;;;;;5049904;28;20071;-62
2023/10/31 10:54:49;;;;;;;1.85;1.00;;;11.60;99.90;;;;;;5049371;28;20482;-61
2023/10/31 10:57:42;;;;;;;1.75;1.00;;;11.50;99.90;;;;;;5049300;28;20398;-62
2023/10/31 11:00:12;;;;;;;4.65;0.98;;;11.50;99.90;;;;;;5049545;28;21013;-61
2023/10/31 11:02:38;;;;;;;2.38;0.65;;;11.60;99.90;;;;;;5049691;28;20020;-62
2023/10/31 11:05:08;;;;;;;0.70;0.70;;;11.70;99.90;;;;;;5049223;28;20406;-61
2023/10/31 11:07:36;;;;;;;1.20;0.60;;;12.00;99.90;;;;;;5049069;28;20428;-62
2023/10/31 11:10:04;;;;;;;1.95;0.65;;;12.20;99.90;;;;;;5049204;28;20071;-61
2023/10/31 11:12:30;;;;;;;1.50;0.60;;;12.50;99.90;;;;;;5049195;28;20028;-61
2023/10/31 11:15:02;;;;;;;0.63;0.50;;;12.60;99.90;;;;;;5049259;28;20108;-62
2023/10/31 11:17:31;;;;;;;0.40;0.40;;;12.80;99.90;;;;;;5048880;28;20099;-61
2023/10/31 11:19:57;;;;;;;5.63;0.57;;;13.10;99.90;;;;;;5049006;28;20240;-62
2023/10/31 11:22:22;;;;;;;0.82;0.60;;;13.30;99.90;;;;;;5047367;28;20486;-61
2023/10/31 11:24:51;;;;;;;0.52;0.52;;;13.40;99.90;;;;;;5048736;28;20082;-61
2023/10/31 11:27:17;;;;;;;0.45;0.32;;;13.40;99.90;;;;;;5048849;28;20086;-61
2023/10/31 11:29:43;;;;;;;0.65;0.45;;;13.30;99.90;;;;;;5049097;28;20371;-62
2023/10/31 11:32:10;;;;;;;2.75;0.60;;;13.10;99.90;;;;;;5047758;28;20240;-62
2023/10/31 11:34:41;;;;;;;0.80;0.50;;;12.90;99.90;;;;;;5044032;28;20022;-63
2023/10/31 11:37:34;;;;;;;2.95;0.52;;;12.80;99.90;;;;;;5048762;28;20066;-62
2023/10/31 11:40:19;;;;;;;2.45;0.55;;;12.60;99.90;;;;;;5048537;28;20402;-62
2023/10/31 11:42:50;;;;;;;0.60;0.50;;;12.70;99.90;;;;;;5045724;28;20024;-62
2023/10/31 11:45:26;;;;;;;;;;;12.90;99.90;;;;;;5040412;28;20032;-62
2023/10/31 11:47:52;;;;;;;0.75;0.52;;;13.10;99.90;;;;;;5042246;28;19905;-62
2023/10/31 11:50:17;;;;;;;1.17;0.70;;;14.50;99.90;;;;;;5048896;28;20025;-62
2023/10/31 11:52:43;;;;;;;1.13;0.50;;;15.40;99.90;;;;;;5045847;28;20025;-62
2023/10/31 11:55:13;;;;;;;0.55;0.52;;;15.30;99.90;;;;;;5049410;28;20031;-62
2023/10/31 11:57:39;;;;;;;0.70;0.65;;;15.10;99.90;;;;;;5047036;28;20025;-61
2023/10/31 12:00:07;;;;;;;0.85;0.55;;;14.70;99.90;;;;;;5052510;28;20440;-61
2023/10/31 12:02:32;;;;;;;1.40;0.80;;;14.20;99.90;;;;;;5052561;28;20082;-61
2023/10/31 12:05:12;;;;;;;0.60;0.50;;;13.80;99.90;;;;;;5052419;28;20025;-61
2023/10/31 12:07:46;;;;;;;1.40;0.73;;;13.60;99.90;;;;;;5052312;28;20021;-61
2023/10/31 12:10:13;;;;;;;1.33;0.60;;;13.40;99.90;;;;;;5049342;28;20120;-61
2023/10/31 12:12:38;;;;;;;1.80;0.52;;;13.20;99.90;;;;;;5052456;28;20383;-61
2023/10/31 12:15:06;;;;;;;1.13;0.40;;;13.20;99.90;;;;;;5052091;28;20061;-62
2023/10/31 12:17:32;;;;;;;0.82;0.57;;;13.10;99.90;;;;;;5043105;28;20403;-62
2023/10/31 12:20:02;;;;;;;2.33;1.23;;;12.90;99.90;;;;;;5051224;28;20103;-61
2023/10/31 12:22:28;;;;;;;4.15;1.02;;;12.90;99.90;;;;;;5050778;28;20021;-61
2023/10/31 12:25:00;;;;;;;1.23;0.63;;;12.80;99.90;;;;;;5048873;28;20025;-61
2023/10/31 12:27:41;;;;;;;1.02;0.77;;;12.70;99.90;;;;;;5042029;28;20038;-61
2023/10/31 12:30:09;;;;;;;0.68;0.63;;;12.60;99.90;;;;;;5039806;28;20025;-62
2023/10/31 12:32:34;;;;;;;1.20;0.88;;;12.60;99.90;;;;;;5049338;28;20418;-62
2023/10/31 12:35:00;;;;;;;1.75;0.80;;;12.70;99.90;;;;;;5051810;28;20055;-61
2023/10/31 12:37:26;;;;;;;2.28;0.88;;;12.70;99.90;;;;;;5051765;28;20043;-61
2023/10/31 12:39:51;;;;;;;3.20;0.80;;;12.80;99.90;;;;;;5051596;28;20114;-61
2023/10/31 12:42:17;;;;;;;2.28;0.70;;;12.90;99.90;;;;;;5050721;28;20043;-62